createdAt,value
2019-03-21T00:00:47.000Z,27
2019-03-21T00:01:47.000Z,27
2019-03-21T00:03:47.000Z,27
2019-03-21T00:04:47.000Z,27
2019-03-21T00:05:47.000Z,27
2019-03-21T00:06:47.000Z,27
2019-03-21T00:07:47.000Z,27
2019-03-21T00:08:47.000Z,27
2019-03-21T00:10:47.000Z,27
2019-03-21T00:11:47.000Z,27
2019-03-21T00:12:47.000Z,27
2019-03-21T00:13:47.000Z,27
2019-03-21T00:14:47.000Z,27
2019-03-21T00:15:47.000Z,27
2019-03-21T00:16:47.000Z,27
2019-03-21T00:17:47.000Z,27
2019-03-21T00:18:47.000Z,27
2019-03-21T00:19:47.000Z,27
2019-03-21T00:21:47.000Z,27
2019-03-21T00:22:47.000Z,27
2019-03-21T00:23:47.000Z,28
2019-03-21T00:24:47.000Z,27
2019-03-21T00:25:47.000Z,28
2019-03-21T00:27:47.000Z,27
2019-03-21T00:29:47.000Z,27
2019-03-21T00:30:47.000Z,27
2019-03-21T00:31:47.000Z,27
2019-03-21T00:32:47.000Z,28
2019-03-21T00:33:47.000Z,27
2019-03-21T00:34:47.000Z,28
2019-03-21T00:35:47.000Z,28
2019-03-21T00:36:47.000Z,28
2019-03-21T00:37:47.000Z,28
2019-03-21T00:38:47.000Z,28
2019-03-21T00:39:47.000Z,28
2019-03-21T00:40:47.000Z,27
2019-03-21T00:41:47.000Z,27
2019-03-21T00:42:47.000Z,27
2019-03-21T00:43:47.000Z,27
2019-03-21T00:44:47.000Z,27
2019-03-21T00:46:47.000Z,27
2019-03-21T00:47:47.000Z,27
2019-03-21T00:48:47.000Z,28
2019-03-21T00:49:47.000Z,27
2019-03-21T00:51:47.000Z,27
2019-03-21T00:52:47.000Z,27
2019-03-21T00:53:47.000Z,28
2019-03-21T00:54:47.000Z,28
2019-03-21T00:55:47.000Z,28
2019-03-21T00:56:47.000Z,27
2019-03-21T00:57:47.000Z,27
2019-03-21T00:58:47.000Z,27
2019-03-21T00:59:47.000Z,27
2019-03-21T01:01:47.000Z,27
2019-03-21T01:02:47.000Z,27
2019-03-21T01:03:47.000Z,27
2019-03-21T01:04:47.000Z,27
2019-03-21T01:05:47.000Z,27
2019-03-21T01:06:47.000Z,27
2019-03-21T01:07:47.000Z,27
2019-03-21T01:08:47.000Z,27
2019-03-21T01:09:47.000Z,27
2019-03-21T01:10:47.000Z,27
2019-03-21T01:12:47.000Z,27
2019-03-21T01:13:47.000Z,27
2019-03-21T01:14:47.000Z,27
2019-03-21T01:16:47.000Z,27
2019-03-21T01:17:47.000Z,27
2019-03-21T01:19:47.000Z,27
2019-03-21T01:20:47.000Z,27
2019-03-21T01:21:47.000Z,27
2019-03-21T01:22:47.000Z,27
2019-03-21T01:23:47.000Z,27
2019-03-21T01:24:47.000Z,27
2019-03-21T01:25:47.000Z,27
2019-03-21T01:26:47.000Z,27
2019-03-21T01:27:47.000Z,27
2019-03-21T01:28:47.000Z,27
2019-03-21T01:29:47.000Z,27
2019-03-21T01:31:47.000Z,27
2019-03-21T01:32:47.000Z,27
2019-03-21T01:33:47.000Z,27
2019-03-21T01:34:47.000Z,27
2019-03-21T01:35:47.000Z,27
2019-03-21T01:36:47.000Z,27
2019-03-21T01:37:47.000Z,27
2019-03-21T01:38:47.000Z,27
2019-03-21T01:39:47.000Z,27
2019-03-21T01:40:47.000Z,27
2019-03-21T01:41:47.000Z,27
2019-03-21T01:43:47.000Z,27
2019-03-21T01:44:47.000Z,27
2019-03-21T01:46:47.000Z,27
2019-03-21T01:47:47.000Z,27
2019-03-21T01:49:47.000Z,27
2019-03-21T01:51:47.000Z,27
2019-03-21T01:52:47.000Z,27
2019-03-21T01:53:47.000Z,27
2019-03-21T01:54:47.000Z,28
2019-03-21T01:55:47.000Z,27
2019-03-21T01:57:47.000Z,27
2019-03-21T01:58:47.000Z,28
2019-03-21T01:59:47.000Z,28
2019-03-21T02:00:47.000Z,28
2019-03-21T02:01:47.000Z,28
2019-03-21T02:02:47.000Z,28
2019-03-21T02:04:47.000Z,27
2019-03-21T02:05:47.000Z,28
2019-03-21T02:06:47.000Z,27
2019-03-21T02:07:47.000Z,28
2019-03-21T02:08:47.000Z,27
2019-03-21T02:09:47.000Z,28
2019-03-21T02:10:47.000Z,27
2019-03-21T02:11:47.000Z,28
2019-03-21T02:12:47.000Z,28
2019-03-21T02:13:47.000Z,27
2019-03-21T02:14:47.000Z,27
2019-03-21T02:15:47.000Z,27
2019-03-21T02:16:47.000Z,27
2019-03-21T02:17:47.000Z,27
2019-03-21T02:18:47.000Z,28
2019-03-21T02:19:47.000Z,27
2019-03-21T02:21:47.000Z,28
2019-03-21T02:22:47.000Z,28
2019-03-21T02:24:47.000Z,28
2019-03-21T02:25:47.000Z,28
2019-03-21T02:26:47.000Z,28
2019-03-21T02:27:47.000Z,28
2019-03-21T02:28:47.000Z,28
2019-03-21T02:29:47.000Z,27
2019-03-21T02:30:47.000Z,28
2019-03-21T02:31:47.000Z,28
2019-03-21T02:32:47.000Z,28
2019-03-21T02:33:47.000Z,28
2019-03-21T02:34:47.000Z,27
2019-03-21T02:35:47.000Z,28
2019-03-21T02:36:47.000Z,27
2019-03-21T02:38:47.000Z,27
2019-03-21T02:40:47.000Z,27
2019-03-21T02:41:47.000Z,28
2019-03-21T02:42:47.000Z,28
2019-03-21T02:43:47.000Z,28
2019-03-21T02:45:47.000Z,27
2019-03-21T02:46:47.000Z,28
2019-03-21T02:47:47.000Z,28
2019-03-21T02:48:47.000Z,28
2019-03-21T02:49:47.000Z,28
2019-03-21T02:50:47.000Z,28
2019-03-21T02:51:47.000Z,28
2019-03-21T02:52:47.000Z,28
2019-03-21T02:53:47.000Z,27
2019-03-21T02:54:47.000Z,28
2019-03-21T02:55:47.000Z,27
2019-03-21T02:56:47.000Z,28
2019-03-21T02:57:47.000Z,28
2019-03-21T02:58:47.000Z,28
2019-03-21T02:59:47.000Z,27
2019-03-21T03:00:47.000Z,28
2019-03-21T03:02:47.000Z,27
2019-03-21T03:03:47.000Z,27
2019-03-21T03:04:47.000Z,27
2019-03-21T03:05:47.000Z,27
2019-03-21T03:06:47.000Z,28
2019-03-21T03:07:47.000Z,27
2019-03-21T03:08:47.000Z,27
2019-03-21T03:09:47.000Z,27
2019-03-21T03:10:47.000Z,27
2019-03-21T03:12:47.000Z,27
2019-03-21T03:13:47.000Z,28
2019-03-21T03:15:47.000Z,27
2019-03-21T03:16:47.000Z,28
2019-03-21T03:17:47.000Z,27
2019-03-21T03:18:47.000Z,28
2019-03-21T03:19:47.000Z,27
2019-03-21T03:20:47.000Z,28
2019-03-21T03:21:47.000Z,28
2019-03-21T03:22:47.000Z,27
2019-03-21T03:23:47.000Z,28
2019-03-21T03:24:47.000Z,27
2019-03-21T03:25:47.000Z,28
2019-03-21T03:26:47.000Z,27
2019-03-21T03:27:47.000Z,28
2019-03-21T03:28:47.000Z,28
2019-03-21T03:29:47.000Z,28
2019-03-21T03:30:47.000Z,28
2019-03-21T03:31:47.000Z,27
2019-03-21T03:32:47.000Z,27
2019-03-21T03:33:47.000Z,28
2019-03-21T03:34:47.000Z,27
2019-03-21T03:35:47.000Z,28
2019-03-21T03:36:47.000Z,27
2019-03-21T03:37:47.000Z,28
2019-03-21T03:38:47.000Z,27
2019-03-21T03:39:47.000Z,28
2019-03-21T03:40:47.000Z,28
2019-03-21T03:41:47.000Z,28
2019-03-21T03:42:47.000Z,27
2019-03-21T03:43:47.000Z,28
2019-03-21T03:45:47.000Z,27
2019-03-21T03:46:47.000Z,27
2019-03-21T03:47:47.000Z,28
2019-03-21T03:48:47.000Z,27
2019-03-21T03:50:47.000Z,27
2019-03-21T03:51:47.000Z,28
2019-03-21T03:53:47.000Z,27
2019-03-21T03:54:47.000Z,28
2019-03-21T03:55:47.000Z,27
2019-03-21T03:56:47.000Z,28
2019-03-21T03:57:47.000Z,28
2019-03-21T03:58:47.000Z,28
2019-03-21T03:59:47.000Z,28
2019-03-21T04:00:47.000Z,28
2019-03-21T04:01:47.000Z,28
2019-03-21T04:02:47.000Z,28
2019-03-21T04:03:47.000Z,27
2019-03-21T04:04:47.000Z,27
2019-03-21T04:05:47.000Z,27
2019-03-21T04:06:47.000Z,27
2019-03-21T04:07:47.000Z,28
2019-03-21T04:08:47.000Z,27
2019-03-21T04:09:47.000Z,27
2019-03-21T04:10:47.000Z,27
2019-03-21T04:12:47.000Z,27
2019-03-21T04:13:47.000Z,27
2019-03-21T04:14:47.000Z,27
2019-03-21T04:15:47.000Z,27
2019-03-21T04:16:47.000Z,27
2019-03-21T04:17:47.000Z,27
2019-03-21T04:18:47.000Z,28
2019-03-21T04:19:47.000Z,28
2019-03-21T04:20:47.000Z,28
2019-03-21T04:21:47.000Z,27
2019-03-21T04:22:47.000Z,27
2019-03-21T04:23:47.000Z,27
2019-03-21T04:24:47.000Z,27
2019-03-21T04:25:47.000Z,27
2019-03-21T04:26:47.000Z,27
2019-03-21T04:28:47.000Z,27
2019-03-21T04:29:47.000Z,27
2019-03-21T04:30:47.000Z,27
2019-03-21T04:31:47.000Z,27
2019-03-21T04:32:47.000Z,27
2019-03-21T04:33:47.000Z,27
2019-03-21T04:34:47.000Z,27
2019-03-21T04:35:47.000Z,27
2019-03-21T04:36:47.000Z,27
2019-03-21T04:38:47.000Z,27
2019-03-21T04:40:47.000Z,27
2019-03-21T04:41:47.000Z,27
2019-03-21T04:42:47.000Z,27
2019-03-21T04:43:47.000Z,27
2019-03-21T04:44:47.000Z,27
2019-03-21T04:45:47.000Z,27
2019-03-21T04:46:47.000Z,27
2019-03-21T04:47:47.000Z,28
2019-03-21T04:48:47.000Z,27
2019-03-21T04:49:47.000Z,28
2019-03-21T04:50:47.000Z,28
2019-03-21T04:51:47.000Z,27
2019-03-21T04:52:47.000Z,28
2019-03-21T04:53:47.000Z,28
2019-03-21T04:54:47.000Z,27
2019-03-21T04:55:47.000Z,27
2019-03-21T04:56:47.000Z,27
2019-03-21T04:57:47.000Z,27
2019-03-21T04:59:47.000Z,27
2019-03-21T05:00:47.000Z,27
2019-03-21T05:01:47.000Z,27
2019-03-21T05:02:47.000Z,28
2019-03-21T05:03:47.000Z,27
2019-03-21T05:04:47.000Z,28
2019-03-21T05:05:47.000Z,28
2019-03-21T05:06:47.000Z,28
2019-03-21T05:07:47.000Z,28
2019-03-21T05:08:47.000Z,28
2019-03-21T05:09:47.000Z,28
2019-03-21T05:10:47.000Z,27
2019-03-21T05:12:47.000Z,27
2019-03-21T05:13:47.000Z,27
2019-03-21T05:14:47.000Z,28
2019-03-21T05:15:47.000Z,27
2019-03-21T05:16:47.000Z,27
2019-03-21T05:17:47.000Z,28
2019-03-21T05:18:47.000Z,28
2019-03-21T05:19:47.000Z,28
2019-03-21T05:20:47.000Z,28
2019-03-21T05:21:47.000Z,28
2019-03-21T05:22:47.000Z,28
2019-03-21T05:23:47.000Z,28
2019-03-21T05:24:47.000Z,28
2019-03-21T05:25:47.000Z,28
2019-03-21T05:26:47.000Z,28
2019-03-21T05:27:47.000Z,28
2019-03-21T05:28:47.000Z,28
2019-03-21T05:29:47.000Z,28
2019-03-21T05:30:47.000Z,28
2019-03-21T05:31:47.000Z,28
2019-03-21T05:32:47.000Z,28
2019-03-21T05:34:47.000Z,28
2019-03-21T05:35:47.000Z,28
2019-03-21T05:36:47.000Z,28
2019-03-21T05:37:47.000Z,28
2019-03-21T05:38:47.000Z,28
2019-03-21T05:39:47.000Z,28
2019-03-21T05:41:47.000Z,28
2019-03-21T05:42:47.000Z,28
2019-03-21T05:44:47.000Z,28
2019-03-21T05:45:47.000Z,28
2019-03-21T05:46:47.000Z,28
2019-03-21T05:47:47.000Z,28
2019-03-21T05:48:47.000Z,28
2019-03-21T05:49:47.000Z,28
2019-03-21T05:50:47.000Z,28
2019-03-21T05:51:47.000Z,28
2019-03-21T05:52:47.000Z,28
2019-03-21T05:53:47.000Z,28
2019-03-21T05:55:47.000Z,27
2019-03-21T05:56:47.000Z,27
2019-03-21T05:57:47.000Z,27
2019-03-21T05:58:47.000Z,27
2019-03-21T06:00:47.000Z,27
2019-03-21T06:01:47.000Z,27
2019-03-21T06:03:47.000Z,27
2019-03-21T06:04:47.000Z,28
2019-03-21T06:06:47.000Z,27
2019-03-21T06:07:47.000Z,28
2019-03-21T06:08:47.000Z,28
2019-03-21T06:09:47.000Z,28
2019-03-21T06:10:47.000Z,28
2019-03-21T06:11:47.000Z,28
2019-03-21T06:12:47.000Z,27
2019-03-21T06:13:47.000Z,28
2019-03-21T06:14:47.000Z,27
2019-03-21T06:15:47.000Z,27
2019-03-21T06:16:47.000Z,27
2019-03-21T06:17:47.000Z,27
2019-03-21T06:18:47.000Z,27
2019-03-21T06:19:47.000Z,27
2019-03-21T06:20:47.000Z,27
2019-03-21T06:21:47.000Z,27
2019-03-21T06:22:47.000Z,27
2019-03-21T06:23:47.000Z,27
2019-03-21T06:24:47.000Z,27
2019-03-21T06:26:47.000Z,27
2019-03-21T06:27:47.000Z,27
2019-03-21T06:28:47.000Z,27
2019-03-21T06:29:47.000Z,27
2019-03-21T06:30:47.000Z,27
2019-03-21T06:31:47.000Z,27
2019-03-21T06:32:47.000Z,27
2019-03-21T06:33:47.000Z,27
2019-03-21T06:34:47.000Z,27
2019-03-21T06:35:47.000Z,27
2019-03-21T06:36:47.000Z,28
2019-03-21T06:37:47.000Z,28
2019-03-21T06:38:47.000Z,28
2019-03-21T06:39:47.000Z,28
2019-03-21T06:40:47.000Z,28
2019-03-21T06:41:47.000Z,28
2019-03-21T06:42:47.000Z,28
2019-03-21T06:43:47.000Z,28
2019-03-21T06:45:47.000Z,28
2019-03-21T06:47:47.000Z,28
2019-03-21T06:48:47.000Z,28
2019-03-21T06:49:47.000Z,28
2019-03-21T06:50:47.000Z,28
2019-03-21T06:51:47.000Z,28
2019-03-21T06:52:47.000Z,28
2019-03-21T06:53:47.000Z,28
2019-03-21T06:54:47.000Z,28
2019-03-21T06:55:47.000Z,28
2019-03-21T06:56:47.000Z,28
2019-03-21T06:57:47.000Z,28
2019-03-21T06:58:47.000Z,28
2019-03-21T06:59:47.000Z,28
2019-03-21T07:00:47.000Z,28
2019-03-21T07:01:47.000Z,28
2019-03-21T07:03:47.000Z,28
2019-03-21T07:05:47.000Z,28
2019-03-21T07:06:47.000Z,28
2019-03-21T07:07:47.000Z,28
2019-03-21T07:08:47.000Z,28
2019-03-21T07:09:47.000Z,28
2019-03-21T07:11:47.000Z,28
2019-03-21T07:13:47.000Z,28
2019-03-21T07:14:47.000Z,28
2019-03-21T07:15:47.000Z,28
2019-03-21T07:16:47.000Z,28
2019-03-21T07:17:47.000Z,28
2019-03-21T07:18:47.000Z,28
2019-03-21T07:19:47.000Z,28
2019-03-21T07:20:47.000Z,28
2019-03-21T07:21:47.000Z,28
2019-03-21T07:22:47.000Z,28
2019-03-21T07:23:47.000Z,28
2019-03-21T07:24:47.000Z,28
2019-03-21T07:25:47.000Z,28
2019-03-21T07:26:47.000Z,28
2019-03-21T07:27:47.000Z,28
2019-03-21T07:28:47.000Z,28
2019-03-21T07:29:47.000Z,28
2019-03-21T07:30:47.000Z,28
2019-03-21T07:31:47.000Z,28
2019-03-21T07:32:47.000Z,28
2019-03-21T07:33:47.000Z,28
2019-03-21T07:35:47.000Z,28
2019-03-21T07:36:47.000Z,28
2019-03-21T07:37:47.000Z,28
2019-03-21T07:38:47.000Z,28
2019-03-21T07:39:47.000Z,28
2019-03-21T07:40:47.000Z,28
2019-03-21T07:41:47.000Z,28
2019-03-21T07:42:47.000Z,28
2019-03-21T07:43:47.000Z,28
2019-03-21T07:44:47.000Z,28
2019-03-21T07:45:47.000Z,28
2019-03-21T07:46:47.000Z,28
2019-03-21T07:47:47.000Z,27
2019-03-21T07:48:47.000Z,27
2019-03-21T07:49:47.000Z,27
2019-03-21T07:50:47.000Z,27
2019-03-21T07:51:47.000Z,27
2019-03-21T07:52:47.000Z,27
2019-03-21T07:53:47.000Z,26
2019-03-21T07:54:47.000Z,26
2019-03-21T07:55:47.000Z,26
2019-03-21T07:56:47.000Z,26
2019-03-21T07:57:47.000Z,26
2019-03-21T07:58:47.000Z,26
2019-03-21T07:59:47.000Z,26
2019-03-21T08:00:47.000Z,26
2019-03-21T08:02:47.000Z,26
2019-03-21T08:04:47.000Z,26
2019-03-21T08:05:47.000Z,26
2019-03-21T08:06:47.000Z,27
2019-03-21T08:07:47.000Z,27
2019-03-21T08:08:47.000Z,27
2019-03-21T08:09:47.000Z,27
2019-03-21T08:10:47.000Z,27
2019-03-21T08:11:47.000Z,27
2019-03-21T08:13:47.000Z,27
2019-03-21T08:15:47.000Z,27
2019-03-21T08:16:47.000Z,27
2019-03-21T08:17:47.000Z,27
2019-03-21T08:18:47.000Z,28
2019-03-21T08:19:47.000Z,27
2019-03-21T08:20:47.000Z,28
2019-03-21T08:21:47.000Z,28
2019-03-21T08:22:47.000Z,28
2019-03-21T08:23:47.000Z,28
2019-03-21T08:24:47.000Z,28
2019-03-21T08:25:47.000Z,28
2019-03-21T08:26:47.000Z,28
2019-03-21T08:27:47.000Z,28
2019-03-21T08:28:47.000Z,28
2019-03-21T08:30:47.000Z,28
2019-03-21T08:31:47.000Z,28
2019-03-21T08:32:47.000Z,28
2019-03-21T08:33:47.000Z,28
2019-03-21T08:34:47.000Z,28
2019-03-21T08:35:47.000Z,28
2019-03-21T08:36:47.000Z,28
2019-03-21T08:37:47.000Z,28
2019-03-21T08:38:47.000Z,28
2019-03-21T08:39:47.000Z,28
2019-03-21T08:40:47.000Z,28
2019-03-21T08:41:47.000Z,28
2019-03-21T08:42:47.000Z,28
2019-03-21T08:43:47.000Z,28
2019-03-21T08:44:47.000Z,28
2019-03-21T08:45:47.000Z,28
2019-03-21T08:46:47.000Z,28
2019-03-21T08:47:47.000Z,28
2019-03-21T08:48:47.000Z,28
2019-03-21T08:49:47.000Z,28
2019-03-21T08:50:47.000Z,28
2019-03-21T08:51:47.000Z,28
2019-03-21T08:52:47.000Z,28
2019-03-21T08:53:47.000Z,28
2019-03-21T08:55:47.000Z,28
2019-03-21T08:56:47.000Z,28
2019-03-21T08:57:47.000Z,28
2019-03-21T08:58:47.000Z,28
2019-03-21T08:59:47.000Z,28
2019-03-21T09:00:47.000Z,28
2019-03-21T09:01:47.000Z,28
2019-03-21T09:02:47.000Z,28
2019-03-21T09:04:47.000Z,28
2019-03-21T09:05:47.000Z,28
2019-03-21T09:07:47.000Z,27
2019-03-21T09:08:47.000Z,28
2019-03-21T09:09:47.000Z,27
2019-03-21T09:10:47.000Z,28
2019-03-21T09:12:47.000Z,27
2019-03-21T09:13:47.000Z,27
2019-03-21T09:14:47.000Z,27
2019-03-21T09:15:47.000Z,27
2019-03-21T09:16:47.000Z,27
2019-03-21T09:17:47.000Z,27
2019-03-21T09:18:47.000Z,27
2019-03-21T09:19:47.000Z,27
2019-03-21T09:20:47.000Z,27
2019-03-21T09:21:47.000Z,27
2019-03-21T09:22:47.000Z,27
2019-03-21T09:23:47.000Z,27
2019-03-21T09:24:47.000Z,27
2019-03-21T09:25:47.000Z,27
2019-03-21T09:26:47.000Z,27
2019-03-21T09:27:47.000Z,27
2019-03-21T09:28:47.000Z,27
2019-03-21T09:30:47.000Z,27
2019-03-21T09:31:47.000Z,27
2019-03-21T09:33:47.000Z,27
2019-03-21T09:34:47.000Z,27
2019-03-21T09:35:47.000Z,27
2019-03-21T09:36:47.000Z,27
2019-03-21T09:37:47.000Z,27
2019-03-21T09:38:47.000Z,27
2019-03-21T09:39:47.000Z,27
2019-03-21T09:40:47.000Z,27
2019-03-21T09:41:47.000Z,27
2019-03-21T09:42:47.000Z,27
2019-03-21T09:43:47.000Z,27
2019-03-21T09:44:47.000Z,27
2019-03-21T09:45:47.000Z,27
2019-03-21T09:46:47.000Z,27
2019-03-21T09:47:47.000Z,27
2019-03-21T09:49:47.000Z,27
2019-03-21T09:50:47.000Z,27
2019-03-21T09:52:47.000Z,27
2019-03-21T09:53:47.000Z,27
2019-03-21T09:54:47.000Z,27
2019-03-21T09:56:47.000Z,27
2019-03-21T09:57:47.000Z,27
2019-03-21T09:58:47.000Z,27
2019-03-21T09:59:47.000Z,27
2019-03-21T10:00:47.000Z,27
2019-03-21T10:01:47.000Z,27
2019-03-21T10:03:47.000Z,27
2019-03-21T10:04:47.000Z,27
2019-03-21T10:06:47.000Z,27
2019-03-21T10:07:47.000Z,27
2019-03-21T10:08:47.000Z,27
2019-03-21T10:09:47.000Z,27
2019-03-21T10:10:47.000Z,27
2019-03-21T10:11:47.000Z,27
2019-03-21T10:12:47.000Z,27
2019-03-21T10:13:47.000Z,27
2019-03-21T10:14:47.000Z,27
2019-03-21T10:15:47.000Z,27
2019-03-21T10:16:47.000Z,27
2019-03-21T10:18:47.000Z,27
2019-03-21T10:19:47.000Z,27
2019-03-21T10:20:47.000Z,27
2019-03-21T10:21:47.000Z,27
2019-03-21T10:22:47.000Z,27
2019-03-21T10:23:47.000Z,27
2019-03-21T10:24:47.000Z,27
2019-03-21T10:25:47.000Z,27
2019-03-21T10:26:47.000Z,27
2019-03-21T10:27:47.000Z,27
2019-03-21T10:28:47.000Z,27
2019-03-21T10:30:47.000Z,26
2019-03-21T10:31:47.000Z,27
2019-03-21T10:32:47.000Z,27
2019-03-21T10:33:47.000Z,27
2019-03-21T10:34:47.000Z,26
2019-03-21T10:35:47.000Z,26
2019-03-21T10:36:47.000Z,26
2019-03-21T10:37:47.000Z,26
2019-03-21T10:38:47.000Z,26
2019-03-21T10:39:47.000Z,26
2019-03-21T10:40:47.000Z,26
2019-03-21T10:41:47.000Z,26
2019-03-21T10:42:47.000Z,26
2019-03-21T10:44:47.000Z,26
2019-03-21T10:45:47.000Z,26
2019-03-21T10:46:47.000Z,26
2019-03-21T10:47:47.000Z,26
2019-03-21T10:48:47.000Z,26
2019-03-21T10:49:47.000Z,26
2019-03-21T10:50:47.000Z,26
2019-03-21T10:51:47.000Z,26
2019-03-21T10:52:47.000Z,26
2019-03-21T10:53:47.000Z,26
2019-03-21T10:54:47.000Z,26
2019-03-21T10:55:47.000Z,26
2019-03-21T10:57:47.000Z,25
2019-03-21T10:58:47.000Z,25
2019-03-21T10:59:47.000Z,25
2019-03-21T11:00:47.000Z,25
2019-03-21T11:02:47.000Z,25
2019-03-21T11:03:47.000Z,25
2019-03-21T11:04:47.000Z,25
2019-03-21T11:05:47.000Z,25
2019-03-21T11:06:47.000Z,25
2019-03-21T11:07:47.000Z,25
2019-03-21T11:08:47.000Z,25
2019-03-21T11:09:47.000Z,25
2019-03-21T11:10:47.000Z,25
2019-03-21T11:11:47.000Z,25
2019-03-21T11:12:47.000Z,25
2019-03-21T11:13:47.000Z,25
2019-03-21T11:14:47.000Z,25
2019-03-21T11:15:47.000Z,25
2019-03-21T11:17:47.000Z,25
2019-03-21T11:18:47.000Z,25
2019-03-21T11:19:47.000Z,25
2019-03-21T11:20:47.000Z,25
2019-03-21T11:21:47.000Z,25
2019-03-21T11:23:47.000Z,25
2019-03-21T11:24:47.000Z,25
2019-03-21T11:25:47.000Z,25
2019-03-21T11:26:47.000Z,25
2019-03-21T11:27:47.000Z,25
2019-03-21T11:28:47.000Z,25
2019-03-21T11:29:47.000Z,25
2019-03-21T11:31:47.000Z,24
2019-03-21T11:32:47.000Z,25
2019-03-21T11:33:47.000Z,25
2019-03-21T11:34:47.000Z,25
2019-03-21T11:35:47.000Z,25
2019-03-21T11:36:47.000Z,25
2019-03-21T11:37:47.000Z,25
2019-03-21T11:38:47.000Z,25
2019-03-21T11:39:47.000Z,24
2019-03-21T11:40:47.000Z,24
2019-03-21T11:41:47.000Z,24
2019-03-21T11:42:47.000Z,24
2019-03-21T11:44:47.000Z,24
2019-03-21T11:45:47.000Z,24
2019-03-21T11:46:47.000Z,24
2019-03-21T11:48:47.000Z,24
2019-03-21T11:49:47.000Z,25
2019-03-21T11:50:47.000Z,25
2019-03-21T11:51:47.000Z,25
2019-03-21T11:52:47.000Z,25
2019-03-21T11:53:47.000Z,25
2019-03-21T11:54:47.000Z,25
2019-03-21T11:55:47.000Z,25
2019-03-21T11:56:47.000Z,25
2019-03-21T11:57:47.000Z,25
2019-03-21T11:58:47.000Z,25
2019-03-21T12:00:47.000Z,24
2019-03-21T12:02:47.000Z,24
2019-03-21T12:03:47.000Z,25
2019-03-21T12:04:47.000Z,25
2019-03-21T12:05:47.000Z,25
2019-03-21T12:06:47.000Z,25
2019-03-21T12:07:47.000Z,25
2019-03-21T12:08:47.000Z,25
2019-03-21T12:09:47.000Z,25
2019-03-21T12:10:47.000Z,25
2019-03-21T12:11:47.000Z,25
2019-03-21T12:12:47.000Z,24
2019-03-21T12:13:47.000Z,24
2019-03-21T12:14:46.000Z,24
2019-03-21T12:15:46.000Z,24
2019-03-21T12:16:46.000Z,24
2019-03-21T12:17:46.000Z,24
2019-03-21T12:19:46.000Z,24
2019-03-21T12:20:46.000Z,24
2019-03-21T12:21:46.000Z,24
2019-03-21T12:22:46.000Z,24
2019-03-21T12:23:46.000Z,24
2019-03-21T12:25:46.000Z,24
2019-03-21T12:27:46.000Z,24
2019-03-21T12:28:46.000Z,24
2019-03-21T12:29:46.000Z,25
2019-03-21T12:30:46.000Z,24
2019-03-21T12:31:46.000Z,24
2019-03-21T12:32:46.000Z,24
2019-03-21T12:33:46.000Z,24
2019-03-21T12:34:46.000Z,24
2019-03-21T12:35:46.000Z,24
2019-03-21T12:36:46.000Z,24
2019-03-21T12:37:46.000Z,24
2019-03-21T12:38:46.000Z,24
2019-03-21T12:39:46.000Z,24
2019-03-21T12:41:46.000Z,24
2019-03-21T12:42:46.000Z,24
2019-03-21T12:44:46.000Z,24
2019-03-21T12:45:46.000Z,24
2019-03-21T12:46:46.000Z,24
2019-03-21T12:47:46.000Z,24
2019-03-21T12:48:46.000Z,24
2019-03-21T12:49:46.000Z,24
2019-03-21T12:50:46.000Z,24
2019-03-21T12:51:46.000Z,24
2019-03-21T12:52:47.000Z,25
2019-03-21T12:53:47.000Z,24
2019-03-21T12:54:47.000Z,24
2019-03-21T12:55:47.000Z,24
2019-03-21T12:57:47.000Z,24
2019-03-21T12:58:47.000Z,25
2019-03-21T12:59:47.000Z,25
2019-03-21T13:01:47.000Z,25
2019-03-21T13:03:47.000Z,25
2019-03-21T13:04:47.000Z,25
2019-03-21T13:05:47.000Z,25
2019-03-21T13:06:47.000Z,25
2019-03-21T13:07:47.000Z,25
2019-03-21T13:09:47.000Z,25
2019-03-21T13:10:47.000Z,25
2019-03-21T13:11:47.000Z,25
2019-03-21T13:12:47.000Z,25
2019-03-21T13:13:47.000Z,25
2019-03-21T13:14:47.000Z,25
2019-03-21T13:15:47.000Z,25
2019-03-21T13:16:47.000Z,25
2019-03-21T13:18:47.000Z,24
2019-03-21T13:19:47.000Z,25
2019-03-21T13:20:47.000Z,25
2019-03-21T13:21:47.000Z,25
2019-03-21T13:22:47.000Z,25
2019-03-21T13:24:47.000Z,25
2019-03-21T13:25:47.000Z,25
2019-03-21T13:26:47.000Z,25
2019-03-21T13:27:47.000Z,25
2019-03-21T13:28:47.000Z,25
2019-03-21T13:29:47.000Z,25
2019-03-21T13:30:47.000Z,25
2019-03-21T13:32:47.000Z,25
2019-03-21T13:34:47.000Z,25
2019-03-21T13:35:47.000Z,24
2019-03-21T13:36:47.000Z,24
2019-03-21T13:37:47.000Z,25
2019-03-21T13:38:47.000Z,25
2019-03-21T13:40:47.000Z,25
2019-03-21T13:42:47.000Z,24
2019-03-21T13:44:47.000Z,24
2019-03-21T13:46:47.000Z,25
2019-03-21T13:47:47.000Z,25
2019-03-21T13:48:47.000Z,25
2019-03-21T13:49:47.000Z,25
2019-03-21T13:50:47.000Z,25
2019-03-21T13:51:47.000Z,24
2019-03-21T13:52:47.000Z,24
2019-03-21T13:53:47.000Z,23
2019-03-21T13:54:47.000Z,23
2019-03-21T13:55:47.000Z,22
2019-03-21T13:56:47.000Z,21
2019-03-21T13:57:47.000Z,21
2019-03-21T13:58:47.000Z,21
2019-03-21T13:59:47.000Z,21
2019-03-21T14:00:47.000Z,21
2019-03-21T14:01:47.000Z,21
2019-03-21T14:03:47.000Z,21
2019-03-21T14:05:47.000Z,22
2019-03-21T14:06:47.000Z,22
2019-03-21T14:07:47.000Z,22
2019-03-21T14:08:47.000Z,22
2019-03-21T14:10:47.000Z,23
2019-03-21T14:11:47.000Z,23
2019-03-21T14:12:47.000Z,23
2019-03-21T14:13:47.000Z,23
2019-03-21T14:14:47.000Z,23
2019-03-21T14:15:47.000Z,23
2019-03-21T14:17:47.000Z,23
2019-03-21T14:19:47.000Z,23
2019-03-21T14:20:47.000Z,24
2019-03-21T14:21:47.000Z,24
2019-03-21T14:22:47.000Z,24
2019-03-21T14:23:47.000Z,24
2019-03-21T14:25:47.000Z,24
2019-03-21T14:26:47.000Z,24
2019-03-21T14:27:47.000Z,24
2019-03-21T14:28:47.000Z,24
2019-03-21T14:29:47.000Z,24
2019-03-21T14:30:47.000Z,24
2019-03-21T14:31:47.000Z,24
2019-03-21T14:32:47.000Z,24
2019-03-21T14:34:47.000Z,24
2019-03-21T14:35:47.000Z,24
2019-03-21T14:36:47.000Z,24
2019-03-21T14:37:47.000Z,24
2019-03-21T14:38:47.000Z,24
2019-03-21T14:39:47.000Z,24
2019-03-21T14:40:47.000Z,24
2019-03-21T14:41:47.000Z,24
2019-03-21T14:43:47.000Z,24
2019-03-21T14:45:47.000Z,24
2019-03-21T14:46:47.000Z,25
2019-03-21T14:47:47.000Z,25
2019-03-21T14:48:47.000Z,25
2019-03-21T14:49:47.000Z,25
2019-03-21T14:50:47.000Z,25
2019-03-21T14:51:47.000Z,25
2019-03-21T14:52:47.000Z,25
2019-03-21T14:53:47.000Z,25
2019-03-21T14:54:47.000Z,25
2019-03-21T14:55:47.000Z,25
2019-03-21T14:57:47.000Z,25
2019-03-21T14:58:47.000Z,25
2019-03-21T14:59:47.000Z,25
2019-03-21T15:00:47.000Z,25
2019-03-21T15:01:47.000Z,25
2019-03-21T15:02:47.000Z,25
2019-03-21T15:03:47.000Z,25
2019-03-21T15:04:47.000Z,25
2019-03-21T15:05:47.000Z,25
2019-03-21T15:06:47.000Z,25
2019-03-21T15:07:47.000Z,25
2019-03-21T15:09:47.000Z,25
2019-03-21T15:10:47.000Z,25
2019-03-21T15:11:47.000Z,25
2019-03-21T15:12:47.000Z,25
2019-03-21T15:13:47.000Z,25
2019-03-21T15:14:47.000Z,25
2019-03-21T15:15:47.000Z,25
2019-03-21T15:16:47.000Z,25
2019-03-21T15:17:47.000Z,25
2019-03-21T15:18:47.000Z,25
2019-03-21T15:19:47.000Z,25
2019-03-21T15:20:47.000Z,25
2019-03-21T15:21:47.000Z,25
2019-03-21T15:22:47.000Z,25
2019-03-21T15:23:47.000Z,25
2019-03-21T15:24:47.000Z,25
2019-03-21T15:25:47.000Z,25
2019-03-21T15:26:47.000Z,25
2019-03-21T15:27:47.000Z,25
2019-03-21T15:29:47.000Z,25
2019-03-21T15:30:47.000Z,25
2019-03-21T15:31:47.000Z,25
2019-03-21T15:32:47.000Z,26
2019-03-21T15:33:47.000Z,25
2019-03-21T15:34:47.000Z,26
2019-03-21T15:35:47.000Z,25
2019-03-21T15:36:47.000Z,25
2019-03-21T15:37:47.000Z,25
2019-03-21T15:38:47.000Z,25
2019-03-21T15:39:47.000Z,25
2019-03-21T15:40:47.000Z,26
2019-03-21T15:41:47.000Z,25
2019-03-21T15:42:47.000Z,26
2019-03-21T15:43:47.000Z,26
2019-03-21T15:44:47.000Z,25
2019-03-21T15:45:47.000Z,25
2019-03-21T15:47:47.000Z,25
2019-03-21T15:48:47.000Z,26
2019-03-21T15:49:47.000Z,26
2019-03-21T15:50:47.000Z,26
2019-03-21T15:51:47.000Z,26
2019-03-21T15:52:47.000Z,26
2019-03-21T15:54:47.000Z,26
2019-03-21T15:55:47.000Z,26
2019-03-21T15:56:47.000Z,26
2019-03-21T15:57:47.000Z,26
2019-03-21T15:58:47.000Z,26
2019-03-21T15:59:47.000Z,26
2019-03-21T16:00:47.000Z,26
2019-03-21T16:01:47.000Z,26
2019-03-21T16:03:47.000Z,26
2019-03-21T16:04:47.000Z,26
2019-03-21T16:05:47.000Z,26